Time;durP1;ratioP1;P1;durP2;ratioP2;P2;SDS_P1;SDS_P2;PMS_P1;PMS_P2;Temp;Humidity;BMP_temperature;BMP_pressure;BME280_temperature;BME280_humidity;BME280_pressure;Samples;Min_cycle;Max_cycle;Signal;HPM_P1;HPM_P2
2022/11/21 00:00:52;;;;;;;25.75;14.93;;;-0.20;99.90;;;;;;4999716;28;20488;-85
2022/11/21 00:03:17;;;;;;;32.97;15.35;;;-0.20;99.90;;;;;;5004565;28;20093;-85
2022/11/21 00:05:48;;;;;;;35.53;18.10;;;-0.20;99.90;;;;;;4978538;28;20030;-85
2022/11/21 00:08:16;;;;;;;30.83;16.02;;;-0.20;99.90;;;;;;5004362;28;20022;-84
2022/11/21 00:10:47;;;;;;;32.72;16.83;;;-0.20;99.90;;;;;;5001052;28;20053;-85
2022/11/21 00:13:16;;;;;;;38.13;18.45;;;-0.20;99.90;;;;;;5000281;28;20036;-85
2022/11/21 00:15:42;;;;;;;32.65;16.90;;;-0.20;99.90;;;;;;5007928;28;20446;-85
2022/11/21 00:18:10;;;;;;;30.02;16.63;;;-0.20;99.90;;;;;;5002209;28;20109;-85
2022/11/21 00:20:42;;;;;;;39.65;19.63;;;-0.20;99.90;;;;;;5000618;28;20034;-85
2022/11/21 00:23:08;;;;;;;36.92;19.85;;;-0.20;99.90;;;;;;5006097;28;20017;-84
2022/11/21 00:25:43;;;;;;;39.22;21.13;;;-0.20;99.90;;;;;;4999912;28;20022;-85
2022/11/21 00:28:09;;;;;;;40.50;21.45;;;-0.10;99.90;;;;;;4999832;28;20072;-84
2022/11/21 00:30:37;;;;;;;38.60;21.05;;;-0.10;99.90;;;;;;4999563;28;20042;-84
2022/11/21 00:33:03;;;;;;;37.03;19.25;;;-0.20;99.90;;;;;;5001465;28;20029;-84
2022/11/21 00:35:35;;;;;;;33.72;19.63;;;-0.20;99.90;;;;;;5002980;28;20037;-84
2022/11/21 00:38:01;;;;;;;40.53;21.23;;;-0.30;99.90;;;;;;5000498;28;20022;-84
2022/11/21 00:40:26;;;;;;;41.55;21.48;;;-0.30;99.90;;;;;;5004496;28;20044;-85
2022/11/21 00:42:52;;;;;;;35.40;20.15;;;-0.30;99.90;;;;;;5005943;28;20025;-85
2022/11/21 00:45:18;;;;;;;36.88;21.35;;;-0.40;99.90;;;;;;5003040;28;20030;-85
2022/11/21 00:47:43;;;;;;;43.63;22.40;;;-0.40;99.90;;;;;;4999726;28;20057;-83
2022/11/21 00:50:09;;;;;;;38.33;21.50;;;-0.40;99.90;;;;;;4997227;28;20030;-83
2022/11/21 00:52:41;;;;;;;41.97;21.48;;;-0.40;99.90;;;;;;4996258;28;20084;-85
2022/11/21 00:55:07;;;;;;;35.25;19.77;;;-0.40;99.90;;;;;;5002176;28;20462;-85
2022/11/21 00:57:32;;;;;;;30.90;18.77;;;-0.40;99.90;;;;;;4986517;28;20080;-85
2022/11/21 00:59:58;;;;;;;36.88;22.05;;;-0.40;99.90;;;;;;5007127;28;20053;-85
2022/11/21 01:02:23;;;;;;;37.80;21.35;;;-0.40;99.90;;;;;;5003319;28;20249;-85
2022/11/21 01:04:49;;;;;;;41.33;22.80;;;-0.40;99.90;;;;;;4995632;28;20065;-85
2022/11/21 01:07:16;;;;;;;37.22;20.98;;;-0.40;99.90;;;;;;5001570;28;20112;-84
2022/11/21 01:09:44;;;;;;;38.53;22.48;;;-0.40;99.90;;;;;;5001324;28;20037;-85
2022/11/21 01:12:10;;;;;;;39.75;22.77;;;-0.40;99.90;;;;;;5002342;28;20037;-85
2022/11/21 01:14:47;;;;;;;44.22;22.15;;;-0.40;99.90;;;;;;5003471;28;23015;-85
2022/11/21 01:17:13;;;;;;;38.08;22.05;;;-0.40;99.90;;;;;;4998064;28;20080;-85
2022/11/21 01:19:39;;;;;;;33.17;19.42;;;-0.40;99.90;;;;;;4999888;28;20157;-86
2022/11/21 01:22:04;;;;;;;41.40;22.40;;;-0.40;99.90;;;;;;4997705;28;20107;-86
2022/11/21 01:24:39;;;;;;;37.38;20.83;;;-0.40;99.90;;;;;;5001935;28;20050;-86
2022/11/21 01:27:07;;;;;;;40.45;22.42;;;-0.40;99.90;;;;;;5000040;28;20024;-84
2022/11/21 01:29:45;;;;;;;36.72;21.13;;;-0.40;99.90;;;;;;5000847;28;20030;-85
2022/11/21 01:32:10;;;;;;;37.78;21.30;;;-0.40;99.90;;;;;;5005468;28;20033;-85
2022/11/21 01:34:36;;;;;;;44.47;23.20;;;-0.40;99.90;;;;;;5004362;28;20536;-85
2022/11/21 01:37:02;;;;;;;42.60;22.10;;;-0.40;99.90;;;;;;5002033;28;20029;-85
2022/11/21 01:39:27;;;;;;;44.30;23.58;;;-0.40;99.90;;;;;;5006503;28;20113;-85
2022/11/21 01:41:53;;;;;;;38.05;21.42;;;-0.40;99.90;;;;;;4997612;28;20029;-84
2022/11/21 01:44:43;;;;;;;51.33;24.35;;;-0.40;99.90;;;;;;5002197;28;20379;-85
2022/11/21 01:47:08;;;;;;;47.55;24.40;;;-0.40;99.90;;;;;;4995886;28;20025;-84
2022/11/21 01:49:48;;;;;;;51.33;26.70;;;-0.30;99.90;;;;;;4992807;28;20374;-85
2022/11/21 01:52:32;;;;;;;48.45;23.35;;;-0.30;99.90;;;;;;5002427;28;20546;-86
2022/11/21 01:55:04;;;;;;;55.00;26.55;;;-0.30;99.90;;;;;;4998188;28;20029;-84
2022/11/21 01:57:44;;;;;;;58.05;29.02;;;-0.30;99.90;;;;;;5000075;28;20022;-85
2022/11/21 02:00:23;;;;;;;48.03;26.02;;;-0.30;99.90;;;;;;4999027;28;20042;-84
2022/11/21 02:03:05;;;;;;;51.97;27.85;;;-0.30;99.90;;;;;;4998091;28;20030;-85
2022/11/21 02:05:38;;;;;;;57.42;28.13;;;-0.40;99.90;;;;;;5000922;28;20049;-85
2022/11/21 02:08:12;;;;;;;50.85;28.10;;;-0.40;99.90;;;;;;5004863;28;20132;-84
2022/11/21 02:11:02;;;;;;;56.55;28.15;;;-0.40;99.90;;;;;;5007641;28;20028;-84
2022/11/21 02:13:28;;;;;;;46.75;26.00;;;-0.40;99.90;;;;;;5005616;28;20033;-84
2022/11/21 02:15:54;;;;;;;52.85;26.75;;;-0.40;99.90;;;;;;4997781;28;20026;-85
2022/11/21 02:18:20;;;;;;;52.67;27.08;;;-0.40;99.90;;;;;;5005065;28;20034;-85
2022/11/21 02:21:20;;;;;;;58.60;28.88;;;-0.40;99.90;;;;;;5003936;28;20117;-85
2022/11/21 02:24:14;;;;;;;54.88;28.38;;;-0.50;99.90;;;;;;4951962;28;20033;-86
2022/11/21 02:26:44;;;;;;;50.75;27.88;;;-0.40;99.90;;;;;;5001888;28;20288;-85
2022/11/21 02:29:10;;;;;;;53.70;28.10;;;-0.40;99.90;;;;;;5003293;28;20463;-85
2022/11/21 02:31:35;;;;;;;59.28;28.42;;;-0.40;99.90;;;;;;5007228;28;20076;-85
2022/11/21 02:34:01;;;;;;;56.35;29.45;;;-0.40;99.90;;;;;;4999553;28;20041;-85
2022/11/21 02:39:35;;;;;;;54.17;28.45;;;-0.40;99.90;;;;;;4892379;23;20457;-85
2022/11/21 02:42:01;;;;;;;54.55;27.85;;;-0.40;99.90;;;;;;4965209;28;20034;-86
2022/11/21 02:44:56;;;;;;;53.90;27.05;;;-0.30;99.90;;;;;;4961643;28;20031;-86
2022/11/21 02:47:23;;;;;;;49.53;27.23;;;-0.40;99.90;;;;;;4962619;28;20109;-85
2022/11/21 02:49:56;;;;;;;55.47;26.17;;;-0.30;99.90;;;;;;4962186;28;20019;-85
2022/11/21 02:52:22;;;;;;;61.38;28.65;;;-0.30;99.90;;;;;;4959059;28;20121;-84
2022/11/21 02:54:48;;;;;;;54.63;28.23;;;-0.40;99.90;;;;;;4959305;28;20133;-86
2022/11/21 02:57:17;;;;;;;52.10;26.50;;;-0.40;99.90;;;;;;4956685;28;20367;-86
2022/11/21 02:59:42;;;;;;;54.60;28.38;;;-0.40;99.90;;;;;;4964394;28;20031;-85
2022/11/21 03:02:08;;;;;;;59.10;29.80;;;-0.40;99.90;;;;;;4962431;28;20551;-85
2022/11/21 03:04:33;;;;;;;56.38;29.48;;;-0.30;99.90;;;;;;4964525;28;20034;-86
2022/11/21 03:06:59;;;;;;;57.47;29.35;;;-0.40;99.90;;;;;;4967625;28;20019;-86
2022/11/21 03:09:29;;;;;;;63.35;29.10;;;-0.40;99.90;;;;;;4955485;28;20074;-83
2022/11/21 03:11:54;;;;;;;62.53;30.35;;;-0.40;99.90;;;;;;4963713;28;20046;-86
2022/11/21 03:14:20;;;;;;;59.00;28.33;;;-0.40;99.90;;;;;;4968517;28;20377;-85
2022/11/21 03:16:45;;;;;;;48.67;25.25;;;-0.40;99.90;;;;;;4967946;28;20416;-85
2022/11/21 03:19:11;;;;;;;55.97;27.58;;;-0.40;99.90;;;;;;4981310;28;20081;-86
2022/11/21 03:21:37;;;;;;;53.70;27.13;;;-0.40;99.90;;;;;;4968983;28;20027;-85
2022/11/21 03:24:02;;;;;;;60.25;29.17;;;-0.50;99.90;;;;;;4985494;28;20022;-86
2022/11/21 03:26:28;;;;;;;54.00;27.20;;;-0.40;99.90;;;;;;4974766;28;20505;-86
2022/11/21 03:28:54;;;;;;;45.38;24.88;;;-0.40;99.90;;;;;;4965340;28;20487;-85
2022/11/21 03:31:19;;;;;;;50.70;28.67;;;-0.40;99.90;;;;;;4973025;28;20045;-86
2022/11/21 03:33:45;;;;;;;48.92;27.52;;;-0.40;99.90;;;;;;4971149;28;20130;-86
2022/11/21 03:36:11;;;;;;;49.15;26.05;;;-0.40;99.90;;;;;;4967418;28;20536;-85
2022/11/21 03:38:36;;;;;;;47.28;24.65;;;-0.40;99.90;;;;;;4969299;28;20380;-86
2022/11/21 03:41:04;;;;;;;51.90;25.80;;;-0.40;99.90;;;;;;4971650;28;20114;-86
2022/11/21 03:43:30;;;;;;;51.70;26.60;;;-0.40;99.90;;;;;;4969618;28;20024;-86
2022/11/21 03:45:56;;;;;;;52.47;25.85;;;-0.40;99.90;;;;;;4972961;28;20037;-86
2022/11/21 03:48:21;;;;;;;47.88;26.13;;;-0.40;99.90;;;;;;4969853;28;20023;-85
2022/11/21 03:50:47;;;;;;;49.58;26.05;;;-0.40;99.90;;;;;;4961810;28;20023;-86
2022/11/21 03:53:12;;;;;;;47.63;25.70;;;-0.50;99.90;;;;;;4962750;28;20464;-86
2022/11/21 03:55:38;;;;;;;54.00;26.42;;;-0.40;99.90;;;;;;4958148;28;20022;-86
2022/11/21 03:58:04;;;;;;;48.53;26.15;;;-0.40;99.90;;;;;;4968521;28;20035;-86
2022/11/21 04:00:29;;;;;;;50.45;25.35;;;-0.40;99.90;;;;;;4958820;28;20377;-86
2022/11/21 04:02:55;;;;;;;46.33;23.77;;;-0.40;99.90;;;;;;4963650;28;20556;-84
2022/11/21 04:05:21;;;;;;;46.30;22.98;;;-0.40;99.90;;;;;;4968185;28;20034;-85
2022/11/21 04:07:46;;;;;;;48.05;23.95;;;-0.40;99.90;;;;;;4958240;28;20022;-86
2022/11/21 04:10:12;;;;;;;50.70;24.80;;;-0.40;99.90;;;;;;4982061;28;20358;-86
2022/11/21 04:12:37;;;;;;;43.85;23.05;;;-0.40;99.90;;;;;;4967701;28;20076;-85
2022/11/21 04:15:04;;;;;;;46.22;24.65;;;-0.40;99.90;;;;;;4972138;28;20466;-85
2022/11/21 04:17:31;;;;;;;43.25;22.65;;;-0.40;99.90;;;;;;4962368;28;20491;-84
2022/11/21 04:19:56;;;;;;;48.38;24.40;;;-0.40;99.90;;;;;;4958806;28;20023;-86
2022/11/21 04:22:22;;;;;;;37.35;21.60;;;-0.40;99.90;;;;;;4959955;28;20615;-86
2022/11/21 04:24:47;;;;;;;44.63;20.77;;;-0.50;99.90;;;;;;4955821;28;20034;-85
2022/11/21 04:27:13;;;;;;;47.75;24.38;;;-0.40;99.90;;;;;;4964033;28;20023;-85
2022/11/21 04:29:39;;;;;;;45.47;24.40;;;-0.40;99.90;;;;;;4960733;28;20464;-84
2022/11/21 04:32:05;;;;;;;45.17;24.52;;;-0.40;99.90;;;;;;4960815;28;20481;-85
2022/11/21 04:34:31;;;;;;;54.75;27.23;;;-0.40;99.90;;;;;;4970424;28;20027;-88
2022/11/21 04:36:56;;;;;;;48.85;25.73;;;-0.40;99.90;;;;;;4955185;28;20019;-86
2022/11/21 04:39:22;;;;;;;49.20;27.00;;;-0.40;99.90;;;;;;4966511;28;20492;-85
2022/11/21 04:41:47;;;;;;;53.67;29.13;;;-0.40;99.90;;;;;;4963763;28;20035;-85
2022/11/21 04:44:13;;;;;;;47.95;26.52;;;-0.50;99.90;;;;;;4955465;28;20024;-86
2022/11/21 04:46:39;;;;;;;49.72;26.00;;;-0.40;99.90;;;;;;4943340;28;20031;-85
2022/11/21 04:49:04;;;;;;;45.28;25.83;;;-0.40;99.90;;;;;;4963619;28;20507;-85
2022/11/21 04:51:30;;;;;;;50.97;25.38;;;-0.40;99.90;;;;;;4974324;28;20100;-85
2022/11/21 04:53:55;;;;;;;48.85;26.38;;;-0.40;99.90;;;;;;4973175;28;20694;-85
2022/11/21 04:56:21;;;;;;;50.28;26.52;;;-0.40;99.90;;;;;;4971541;28;20030;-87
2022/11/21 04:58:50;;;;;;;48.38;25.33;;;-0.40;99.90;;;;;;4959403;28;20030;-85
2022/11/21 05:01:16;;;;;;;51.25;25.83;;;-0.40;99.90;;;;;;4963386;28;20039;-85
2022/11/21 05:03:41;;;;;;;45.88;24.73;;;-0.40;99.90;;;;;;4958307;28;20032;-85
2022/11/21 05:06:07;;;;;;;45.92;24.83;;;-0.40;99.90;;;;;;4940767;28;20019;-85
2022/11/21 05:08:33;;;;;;;51.47;27.00;;;-0.40;99.90;;;;;;4966777;28;20026;-86
2022/11/21 05:13:43;;;;;;;50.63;25.83;;;-0.50;99.90;;;;;;4955373;28;20034;-85
2022/11/21 05:16:08;;;;;;;49.63;25.27;;;-0.40;99.90;;;;;;4955836;28;20027;-84
2022/11/21 05:18:34;;;;;;;47.70;24.95;;;-0.40;99.90;;;;;;4969424;28;20357;-84
2022/11/21 05:21:01;;;;;;;54.85;27.17;;;-0.50;99.90;;;;;;4954389;28;20041;-84
2022/11/21 05:23:27;;;;;;;52.03;26.05;;;-0.50;99.90;;;;;;4960880;28;20268;-86
2022/11/21 05:25:52;;;;;;;45.85;25.45;;;-0.50;99.90;;;;;;4969704;28;20019;-85
2022/11/21 05:28:18;;;;;;;46.15;25.60;;;-0.50;99.90;;;;;;4959423;28;20026;-85
2022/11/21 05:30:43;;;;;;;44.22;24.42;;;-0.50;99.90;;;;;;4963391;28;20100;-85
2022/11/21 05:33:09;;;;;;;44.13;23.95;;;-0.50;99.90;;;;;;4968363;28;20039;-85
2022/11/21 05:35:37;;;;;;;44.50;24.33;;;-0.50;99.90;;;;;;4958842;28;20102;-85
2022/11/21 05:38:02;;;;;;;44.08;24.77;;;-0.40;99.90;;;;;;4963944;28;20058;-86
2022/11/21 05:40:28;;;;;;;41.13;23.15;;;-0.40;99.90;;;;;;4957076;28;20054;-86
2022/11/21 05:45:40;;;;;;;40.42;20.67;;;-0.40;99.90;;;;;;4969409;28;20033;-85
2022/11/21 05:48:09;;;;;;;37.78;21.00;;;-0.40;99.90;;;;;;4966679;28;20026;-85
2022/11/21 05:50:35;;;;;;;38.65;19.52;;;-0.40;99.90;;;;;;4964187;28;20471;-86
2022/11/21 05:53:04;;;;;;;38.38;20.33;;;-0.40;99.90;;;;;;4962633;28;20038;-86
2022/11/21 05:55:32;;;;;;;35.50;20.05;;;-0.40;99.90;;;;;;4963597;28;20042;-84
2022/11/21 05:57:59;;;;;;;36.15;19.67;;;-0.40;99.90;;;;;;4975642;28;20065;-86
2022/11/21 06:00:24;;;;;;;37.63;21.67;;;-0.40;99.90;;;;;;4959583;28;20035;-86
2022/11/21 06:05:36;;;;;;;41.10;22.48;;;-0.50;99.90;;;;;;4954737;28;20038;-84
2022/11/21 06:08:02;;;;;;;38.15;21.60;;;-0.50;99.90;;;;;;4972013;28;20125;-85
2022/11/21 06:10:27;;;;;;;40.60;21.83;;;-0.40;99.90;;;;;;4964727;28;20027;-86
2022/11/21 06:12:53;;;;;;;35.95;20.85;;;-0.50;99.90;;;;;;4966393;28;20035;-85
2022/11/21 06:15:19;;;;;;;33.60;19.50;;;-0.40;99.90;;;;;;4965011;28;20046;-86
2022/11/21 06:17:44;;;;;;;43.38;23.13;;;-0.50;99.90;;;;;;4958193;28;20483;-86
2022/11/21 06:20:10;;;;;;;54.20;23.85;;;-0.50;99.90;;;;;;4966018;28;20152;-84
2022/11/21 06:22:36;;;;;;;52.25;27.38;;;-0.40;99.90;;;;;;4968936;28;20514;-85
2022/11/21 06:25:03;;;;;;;58.50;28.77;;;-0.40;99.90;;;;;;4967487;28;20035;-86
2022/11/21 06:27:29;;;;;;;48.80;26.88;;;-0.40;99.90;;;;;;4958643;28;20086;-86
2022/11/21 06:29:55;;;;;;;49.47;26.60;;;-0.40;99.90;;;;;;4956912;28;20030;-86
2022/11/21 06:32:24;;;;;;;58.88;27.95;;;-0.40;99.90;;;;;;4968743;28;20035;-86
2022/11/21 06:34:49;;;;;;;46.05;25.40;;;-0.40;99.90;;;;;;4960414;28;20082;-86
2022/11/21 06:47:49;;;;;;;51.70;26.75;;;-0.40;99.90;;;;;;4894203;23;20451;-87
2022/11/21 06:50:15;;;;;;;48.85;25.90;;;-0.40;99.90;;;;;;4900522;29;20130;-85
2022/11/21 06:52:41;;;;;;;52.72;27.77;;;-0.40;99.90;;;;;;4911158;29;20052;-86
2022/11/21 06:55:09;;;;;;;57.05;27.52;;;-0.40;99.90;;;;;;4914862;29;20047;-86
2022/11/21 06:57:34;;;;;;;57.03;28.92;;;-0.40;99.90;;;;;;4898396;29;20442;-85
2022/11/21 07:00:00;;;;;;;49.05;27.13;;;-0.40;99.90;;;;;;4911397;29;20032;-86
2022/11/21 07:02:26;;;;;;;51.42;27.30;;;-0.40;99.90;;;;;;4912602;29;20119;-85
2022/11/21 07:04:52;;;;;;;54.88;29.13;;;-0.40;99.90;;;;;;4922618;29;20269;-86
2022/11/21 07:07:19;;;;;;;57.25;29.50;;;-0.40;99.90;;;;;;4915928;29;20038;-86
2022/11/21 07:09:46;;;;;;;55.58;28.50;;;-0.40;99.90;;;;;;4916922;29;20393;-86
2022/11/21 07:14:56;;;;;;;56.33;27.73;;;-0.40;99.90;;;;;;4907714;29;20377;-85
2022/11/21 07:17:21;;;;;;;50.88;26.65;;;-0.50;99.90;;;;;;4912538;29;20032;-85
2022/11/21 07:19:47;;;;;;;52.92;27.77;;;-0.50;99.90;;;;;;4924870;29;20091;-85
2022/11/21 07:22:13;;;;;;;56.25;28.20;;;-0.40;99.90;;;;;;4920431;29;20020;-86
2022/11/21 07:24:38;;;;;;;60.05;29.13;;;-0.40;99.90;;;;;;4916906;29;20454;-86
2022/11/21 07:27:04;;;;;;;62.35;31.63;;;-0.40;99.90;;;;;;4907852;29;21023;-87
2022/11/21 07:29:29;;;;;;;66.82;32.35;;;-0.40;99.90;;;;;;4913219;29;20447;-86
2022/11/21 07:31:55;;;;;;;59.67;29.70;;;-0.40;99.90;;;;;;4909563;29;20087;-85
2022/11/21 07:34:20;;;;;;;58.22;29.38;;;-0.40;99.90;;;;;;4913781;29;20031;-86
2022/11/21 07:36:46;;;;;;;62.08;30.33;;;-0.30;99.90;;;;;;4919900;29;20055;-86
2022/11/21 07:39:12;;;;;;;56.67;29.02;;;-0.40;99.90;;;;;;4914685;29;20016;-85
2022/11/21 07:41:37;;;;;;;57.95;30.80;;;-0.40;99.90;;;;;;4915270;29;20047;-86
2022/11/21 07:44:03;;;;;;;68.32;32.65;;;-0.40;99.90;;;;;;4915175;29;20500;-86
2022/11/21 07:46:28;;;;;;;66.57;32.55;;;-0.40;99.90;;;;;;4917447;29;20039;-86
2022/11/21 07:48:54;;;;;;;66.22;32.63;;;-0.40;99.90;;;;;;4918847;29;20036;-86
2022/11/21 07:51:20;;;;;;;75.15;33.60;;;-0.40;99.90;;;;;;4916117;29;20090;-84
2022/11/21 07:53:45;;;;;;;102.50;51.28;;;-0.40;99.90;;;;;;4912204;29;20111;-86
2022/11/21 07:56:11;;;;;;;73.00;35.00;;;-0.30;99.90;;;;;;4912750;29;20039;-86
2022/11/21 07:58:37;;;;;;;64.50;32.05;;;-0.30;99.90;;;;;;4903783;29;20016;-86
2022/11/21 08:01:04;;;;;;;82.20;38.83;;;-0.30;99.90;;;;;;4911211;29;20064;-86
2022/11/21 08:03:31;;;;;;;74.22;35.88;;;-0.30;99.90;;;;;;4914882;29;20027;-86
2022/11/21 08:05:59;;;;;;;80.00;35.38;;;-0.30;99.90;;;;;;4915912;29;20347;-86
2022/11/21 08:08:25;;;;;;;71.70;33.47;;;-0.20;99.90;;;;;;4917439;29;20911;-86
2022/11/21 08:10:50;;;;;;;80.05;35.10;;;-0.20;99.90;;;;;;4912740;29;20032;-87
2022/11/21 08:13:16;;;;;;;81.10;34.90;;;-0.30;99.90;;;;;;4909382;29;20393;-86
2022/11/21 08:15:42;;;;;;;80.10;37.47;;;-0.20;99.90;;;;;;4911259;29;20453;-86
2022/11/21 08:18:12;;;;;;;69.82;32.67;;;-0.30;99.90;;;;;;4916436;29;20028;-86
2022/11/21 08:20:41;;;;;;;76.90;34.20;;;-0.20;99.90;;;;;;4911177;29;20025;-84
2022/11/21 08:23:08;;;;;;;81.32;36.10;;;-0.30;99.90;;;;;;4904953;29;20051;-87
2022/11/21 08:25:36;;;;;;;76.05;33.40;;;-0.20;99.90;;;;;;4913423;29;20024;-87
2022/11/21 08:28:03;;;;;;;77.85;33.28;;;-0.20;99.90;;;;;;4915253;29;20023;-86
2022/11/21 08:30:29;;;;;;;76.07;34.42;;;-0.20;99.90;;;;;;4914783;29;20024;-86
2022/11/21 08:32:57;;;;;;;78.20;33.67;;;-0.30;99.90;;;;;;4916899;29;20048;-86
2022/11/21 08:35:23;;;;;;;77.45;32.85;;;-0.30;99.90;;;;;;4922848;29;20582;-86
2022/11/21 08:37:59;;;;;;;75.35;35.30;;;-0.20;99.90;;;;;;4910762;29;20040;-84
2022/11/21 08:40:26;;;;;;;70.57;33.65;;;-0.20;99.90;;;;;;4923039;29;20504;-86
2022/11/21 08:42:58;;;;;;;74.32;32.58;;;-0.20;99.90;;;;;;4910675;29;20035;-86
2022/11/21 08:45:24;;;;;;;72.47;32.60;;;-0.20;99.90;;;;;;4915155;29;20024;-86
2022/11/21 08:47:51;;;;;;;75.35;33.22;;;-0.20;99.90;;;;;;4919739;29;20055;-86
2022/11/21 08:50:17;;;;;;;76.53;35.38;;;-0.20;99.90;;;;;;4916060;29;20030;-88
2022/11/21 08:52:42;;;;;;;73.15;35.05;;;-0.20;99.90;;;;;;4911703;29;20036;-86
2022/11/21 08:55:08;;;;;;;59.35;30.05;;;-0.20;99.90;;;;;;4914008;29;20055;-86
2022/11/21 08:57:38;;;;;;;66.40;30.65;;;-0.20;99.90;;;;;;4915870;29;20020;-86
2022/11/21 09:00:05;;;;;;;65.30;29.42;;;-0.20;99.90;;;;;;4915388;29;20028;-86
2022/11/21 09:02:30;;;;;;;67.65;30.83;;;-0.10;99.90;;;;;;4909624;29;20020;-87
2022/11/21 09:04:56;;;;;;;68.50;31.95;;;-0.10;99.90;;;;;;4893967;29;20488;-86
2022/11/21 09:07:22;;;;;;;55.95;26.05;;;-0.10;99.90;;;;;;4917304;29;20030;-86
2022/11/21 09:09:47;;;;;;;56.08;26.63;;;-0.10;99.90;;;;;;4909460;29;20289;-86
2022/11/21 09:12:13;;;;;;;57.30;28.35;;;-0.10;99.90;;;;;;4908748;29;20055;-86
2022/11/21 09:20:11;;;;;;;53.58;26.30;;;-0.10;99.90;;;;;;4907718;29;20075;-85
2022/11/21 09:22:36;;;;;;;59.88;27.80;;;0.00;99.90;;;;;;4907144;29;20035;-85
2022/11/21 09:25:02;;;;;;;68.60;30.35;;;0.00;99.90;;;;;;4905481;29;20230;-87
2022/11/21 09:27:29;;;;;;;58.65;26.85;;;0.00;99.90;;;;;;4908249;29;20028;-87
2022/11/21 09:29:55;;;;;;;60.78;27.48;;;0.00;99.90;;;;;;4907817;29;20024;-87
2022/11/21 09:32:21;;;;;;;53.03;25.67;;;0.00;99.90;;;;;;4907266;29;20070;-87
2022/11/21 09:34:47;;;;;;;47.78;23.98;;;0.00;99.90;;;;;;4912991;29;20035;-86
2022/11/21 09:37:14;;;;;;;52.38;25.52;;;0.00;99.90;;;;;;4910521;29;20382;-85
2022/11/21 09:39:40;;;;;;;53.88;25.58;;;0.00;99.90;;;;;;4908715;29;20124;-85
2022/11/21 09:42:28;;;;;;;49.20;24.55;;;0.10;99.90;;;;;;4914368;29;20036;-85
2022/11/21 09:45:18;;;;;;;48.08;23.98;;;0.10;99.90;;;;;;4899743;29;20032;-87
2022/11/21 09:47:47;;;;;;;58.25;24.70;;;0.10;99.90;;;;;;4906042;29;20063;-86
2022/11/21 09:50:41;;;;;;;46.42;22.55;;;0.10;99.90;;;;;;4906752;29;20032;-87
2022/11/21 09:53:25;;;;;;;50.88;23.30;;;0.20;99.90;;;;;;4902406;29;20047;-86
2022/11/21 09:56:12;;;;;;;37.92;16.23;;;0.20;99.90;;;;;;4912834;29;20024;-86
2022/11/21 09:58:43;;;;;;;24.70;11.63;;;0.30;99.90;;;;;;4906652;29;20224;-85
2022/11/21 10:01:12;;;;;;;12.70;7.50;;;0.30;99.90;;;;;;4911440;29;20061;-84
2022/11/21 10:03:49;;;;;;;14.20;8.98;;;0.30;99.90;;;;;;4910565;29;20038;-85
2022/11/21 10:06:28;;;;;;;15.25;8.18;;;0.30;99.90;;;;;;4910830;29;20436;-86
2022/11/21 10:09:08;;;;;;;9.18;5.85;;;0.30;99.90;;;;;;4906089;29;20020;-85
2022/11/21 10:14:55;;;;;;;11.63;6.43;;;0.50;99.90;;;;;;4908803;29;20381;-84
2022/11/21 10:17:45;;;;;;;7.10;5.03;;;0.50;99.90;;;;;;4906833;29;20044;-86
2022/11/21 10:20:20;;;;;;;6.63;4.80;;;0.30;99.90;;;;;;4911385;29;20039;-86
2022/11/21 10:23:13;;;;;;;5.88;4.50;;;0.30;99.90;;;;;;4915356;29;20429;-85
2022/11/21 10:25:41;;;;;;;5.80;4.43;;;0.30;99.90;;;;;;4915251;29;20024;-85
2022/11/21 10:28:30;;;;;;;6.63;4.30;;;0.30;99.90;;;;;;4913253;29;20036;-88
2022/11/21 10:31:01;;;;;;;4.45;4.03;;;0.30;99.90;;;;;;4910422;29;20147;-86
2022/11/21 10:33:35;;;;;;;5.85;4.65;;;0.30;99.90;;;;;;4918012;29;20118;-85
2022/11/21 10:36:22;;;;;;;6.97;4.68;;;0.30;99.90;;;;;;4909883;29;20092;-86
2022/11/21 10:38:50;;;;;;;5.47;4.53;;;0.30;99.90;;;;;;4914275;29;20040;-86
2022/11/21 10:41:24;;;;;;;6.07;4.60;;;0.30;99.90;;;;;;4910359;29;20509;-85
2022/11/21 10:46:55;;;;;;;5.82;3.83;;;0.40;99.90;;;;;;4913235;29;20091;-85
2022/11/21 10:49:20;;;;;;;4.70;3.47;;;0.40;99.90;;;;;;4908050;29;20052;-86
2022/11/21 10:51:56;;;;;;;4.90;3.55;;;0.40;99.90;;;;;;4906010;29;20044;-86
2022/11/21 10:54:31;;;;;;;5.00;3.75;;;0.50;99.90;;;;;;4913997;29;20028;-86
2022/11/21 10:57:19;;;;;;;5.95;3.85;;;0.50;99.90;;;;;;4921226;29;20026;-86
2022/11/21 11:00:10;;;;;;;3.92;3.53;;;0.60;99.90;;;;;;4911227;29;20062;-85
2022/11/21 11:02:35;;;;;;;5.25;4.13;;;0.60;99.90;;;;;;4911623;29;20470;-85
2022/11/21 11:05:20;;;;;;;6.55;3.90;;;0.60;99.90;;;;;;4915515;29;20058;-86
2022/11/21 11:08:05;;;;;;;5.82;3.65;;;0.60;99.90;;;;;;4911757;29;20021;-88
2022/11/21 11:10:35;;;;;;;4.37;3.97;;;0.60;99.90;;;;;;4913440;29;20024;-86
2022/11/21 11:16:10;;;;;;;8.40;4.93;;;0.80;99.90;;;;;;4915221;29;20043;-85
2022/11/21 11:18:46;;;;;;;5.05;4.25;;;0.80;99.90;;;;;;4910183;29;20381;-86
2022/11/21 11:21:14;;;;;;;7.70;5.55;;;0.80;99.90;;;;;;4910930;29;20185;-85
2022/11/21 11:23:40;;;;;;;5.95;4.32;;;0.80;99.90;;;;;;4914524;29;20123;-85
2022/11/21 11:26:24;;;;;;;4.32;3.65;;;0.70;99.90;;;;;;4919891;29;20107;-86
2022/11/21 11:28:50;;;;;;;5.28;3.35;;;0.80;99.90;;;;;;4919011;29;20012;-86
2022/11/21 11:31:16;;;;;;;4.95;4.00;;;0.80;99.90;;;;;;4911870;29;20168;-85
2022/11/21 11:33:52;;;;;;;5.10;3.78;;;0.80;99.90;;;;;;4919627;29;20048;-86
2022/11/21 11:36:35;;;;;;;4.70;3.97;;;0.70;99.90;;;;;;4913623;29;20055;-87
2022/11/21 11:39:21;;;;;;;8.00;4.50;;;0.70;99.90;;;;;;4921548;29;20040;-85
2022/11/21 11:47:54;;;;;;;5.00;4.22;;;0.90;99.90;;;;;;4910579;29;20071;-82
2022/11/21 11:50:46;;;;;;;10.45;5.90;;;1.00;99.90;;;;;;4911034;29;20040;-84
2022/11/21 11:53:19;;;;;;;9.43;5.47;;;1.00;99.90;;;;;;4872059;29;20048;-84
2022/11/21 11:55:55;;;;;;;14.35;8.43;;;1.00;99.90;;;;;;4908536;29;20111;-84
2022/11/21 11:58:20;;;;;;;7.55;4.28;;;1.00;99.90;;;;;;4914707;29;20099;-84
2022/11/21 12:01:02;;;;;;;8.95;4.47;;;1.00;99.90;;;;;;4905920;29;20032;-87
2022/11/21 12:03:35;;;;;;;9.48;4.85;;;1.00;99.90;;;;;;4914533;29;20036;-83
2022/11/21 12:06:33;;;;;;;8.20;5.43;;;1.00;99.90;;;;;;4912226;29;20035;-85
2022/11/21 12:09:10;;;;;;;7.72;5.45;;;1.00;99.90;;;;;;4916233;29;20055;-83
2022/11/21 12:12:06;;;;;;;6.97;5.03;;;1.10;99.90;;;;;;4913182;29;20131;-84
2022/11/21 12:17:57;;;;;;;6.75;4.90;;;1.10;99.90;;;;;;4909453;29;20496;-84
2022/11/21 12:20:29;;;;;;;9.13;5.25;;;1.10;99.90;;;;;;4918741;29;20038;-82
2022/11/21 12:22:55;;;;;;;5.47;4.60;;;1.10;99.90;;;;;;4917639;29;20086;-83
2022/11/21 12:25:28;;;;;;;6.32;4.88;;;1.20;99.90;;;;;;4915786;29;20034;-83
2022/11/21 12:27:55;;;;;;;7.03;4.82;;;1.10;99.90;;;;;;4916853;29;20016;-82
2022/11/21 12:30:38;;;;;;;6.32;3.88;;;1.20;99.90;;;;;;4919098;29;20429;-83
2022/11/21 12:33:12;;;;;;;9.02;4.72;;;1.20;99.90;;;;;;4913410;29;20647;-83
2022/11/21 12:35:58;;;;;;;5.32;4.20;;;1.20;99.90;;;;;;4908200;29;20497;-84
2022/11/21 12:38:50;;;;;;;5.82;4.63;;;1.30;99.90;;;;;;4914206;29;20099;-80
2022/11/21 12:44:40;;;;;;;11.20;5.38;;;1.30;99.90;;;;;;4913616;29;20426;-83
2022/11/21 12:54:28;;;;;;;7.05;4.45;;;1.30;99.90;;;;;;4898638;29;20252;-81
2022/11/21 12:56:44;;;;;;;6.57;4.35;;;1.40;99.90;;;;;;4914611;29;20047;-82
2022/11/21 12:59:12;;;;;;;6.38;4.05;;;1.30;99.90;;;;;;4880972;29;20036;-81
2022/11/21 13:02:08;;;;;;;6.25;4.47;;;1.30;99.90;;;;;;4916157;29;20050;-82
2022/11/21 13:04:37;;;;;;;4.93;3.90;;;1.30;99.90;;;;;;4892177;29;20047;-82
2022/11/21 13:07:04;;;;;;;6.45;4.65;;;1.30;99.90;;;;;;4916492;29;20377;-83
2022/11/21 13:09:40;;;;;;;7.55;5.32;;;1.30;99.90;;;;;;4913935;29;20450;-81
2022/11/21 13:12:21;;;;;;;7.82;4.88;;;1.30;99.90;;;;;;4918103;29;20035;-81
2022/11/21 13:15:04;;;;;;;7.10;5.15;;;1.30;99.90;;;;;;4911885;29;20189;-82
2022/11/21 13:17:51;;;;;;;11.25;6.70;;;1.20;99.90;;;;;;4908871;29;20035;-81
2022/11/21 13:20:52;;;;;;;8.10;5.22;;;1.20;99.90;;;;;;4910114;29;20502;-81
2022/11/21 13:23:40;;;;;;;12.82;7.03;;;1.20;99.90;;;;;;4909745;29;20126;-82
2022/11/21 13:26:24;;;;;;;9.40;6.50;;;1.20;99.90;;;;;;4910864;29;20052;-82
2022/11/21 13:29:06;;;;;;;9.52;6.00;;;1.10;99.90;;;;;;4921256;29;20016;-82
2022/11/21 13:31:32;;;;;;;9.57;6.35;;;1.10;99.90;;;;;;4912382;29;20127;-82
2022/11/21 13:33:59;;;;;;;7.38;6.07;;;1.10;99.90;;;;;;4913000;29;20477;-82
2022/11/21 13:36:28;;;;;;;9.57;6.00;;;1.10;99.90;;;;;;4908209;29;20055;-82
2022/11/21 13:38:53;;;;;;;9.48;5.85;;;1.00;99.90;;;;;;4918276;29;20238;-81
2022/11/21 13:44:28;;;;;;;8.23;5.70;;;1.00;99.90;;;;;;4914028;29;20924;-82
2022/11/21 13:47:01;;;;;;;10.80;6.27;;;1.00;99.90;;;;;;4913354;29;20484;-81
2022/11/21 13:49:48;;;;;;;11.02;7.28;;;1.00;99.90;;;;;;4908867;29;20092;-82
2022/11/21 13:52:19;;;;;;;;;;;1.00;99.90;;;;;;4912348;29;20381;-81